createdAt,value
2022-11-03T00:02:24.015Z,100418.75
2022-11-03T00:04:52.579Z,100425.75
2022-11-03T00:07:22.713Z,100410.28
2022-11-03T00:09:51.196Z,100405.84
2022-11-03T00:12:19.647Z,100402.13
2022-11-03T00:14:48.104Z,100389.56
2022-11-03T00:17:16.557Z,100376.97
2022-11-03T00:19:46.871Z,100376.19
2022-11-03T00:22:15.279Z,100369.34
2022-11-03T00:24:43.901Z,100377.38
2022-11-03T00:27:12.335Z,100342.47
2022-11-03T00:29:40.982Z,100364.78
2022-11-03T00:32:09.448Z,100360.59
2022-11-03T00:34:38.239Z,100359.84
2022-11-03T00:37:08.252Z,100351.50
2022-11-03T00:39:36.771Z,100353.06
2022-11-03T00:42:05.429Z,100363.75
2022-11-03T00:44:33.916Z,100355.88
2022-11-03T00:47:02.652Z,100354.88
2022-11-03T00:49:31.418Z,100302.00
2022-11-03T00:52:00.024Z,100339.88
2022-11-03T00:54:30.140Z,100332.56
2022-11-03T00:56:58.668Z,100212.66
2022-11-03T00:59:27.100Z,100313.91
2022-11-03T01:01:55.968Z,100309.75
2022-11-03T01:04:41.966Z,100282.22
2022-11-03T01:07:10.606Z,100261.41
2022-11-03T01:09:43.494Z,100299.88
2022-11-03T01:12:14.375Z,100323.50
2022-11-03T01:14:44.951Z,100312.69
2022-11-03T01:17:16.505Z,100298.78
2022-11-03T01:19:45.140Z,100272.38
2022-11-03T01:22:15.088Z,100247.78
2022-11-03T01:24:45.680Z,100300.19
2022-11-03T01:27:16.339Z,100206.28
2022-11-03T01:29:45.361Z,100233.19
2022-11-03T01:32:14.303Z,100254.59
2022-11-03T01:34:42.971Z,100242.06
2022-11-03T01:37:11.492Z,100321.00
2022-11-03T01:39:40.044Z,100224.66
2022-11-03T01:42:13.912Z,100225.91
2022-11-03T01:44:47.730Z,100316.75
2022-11-03T01:47:26.916Z,100288.63
2022-11-03T01:49:59.362Z,100316.66
2022-11-03T01:52:34.116Z,100313.75
2022-11-03T01:55:06.079Z,100307.38
2022-11-03T01:57:41.397Z,100312.38
2022-11-03T02:00:11.508Z,100291.50
2022-11-03T02:02:44.092Z,100224.81
2022-11-03T02:05:15.779Z,100312.78
2022-11-03T02:07:51.607Z,100208.06
2022-11-03T02:10:24.347Z,100300.59
2022-11-03T02:12:54.593Z,100289.16
2022-11-03T02:15:24.742Z,100309.97
2022-11-03T02:17:57.753Z,100303.50
2022-11-03T02:20:29.430Z,100322.94
2022-11-03T02:23:11.816Z,100291.16
2022-11-03T02:25:47.124Z,100323.19
2022-11-03T02:28:19.505Z,100317.38
2022-11-03T02:30:55.152Z,100310.53
2022-11-03T02:33:33.077Z,100294.50
2022-11-03T02:36:08.155Z,100265.53
2022-11-03T02:38:43.019Z,100317.91
2022-11-03T02:41:14.342Z,100310.97
2022-11-03T02:43:45.169Z,100309.19
2022-11-03T02:46:16.193Z,100314.81
2022-11-03T02:48:47.155Z,100301.19
2022-11-03T02:51:15.615Z,100329.41
2022-11-03T02:53:51.354Z,100324.56
2022-11-03T02:56:24.982Z,100309.78
2022-11-03T02:58:59.910Z,100308.94
2022-11-03T03:01:35.079Z,100287.28
2022-11-03T03:04:09.272Z,100315.28
2022-11-03T03:06:44.738Z,100303.81
2022-11-03T03:09:17.094Z,100258.88
2022-11-03T03:11:50.183Z,100265.44
2022-11-03T03:14:21.952Z,100333.84
2022-11-03T03:16:59.209Z,100323.84
2022-11-03T03:19:35.500Z,100326.31
2022-11-03T03:22:11.073Z,100327.72
2022-11-03T03:24:46.868Z,100325.34
2022-11-03T03:27:19.054Z,100321.31
2022-11-03T03:29:52.090Z,100334.06
2022-11-03T03:32:23.558Z,100333.50
2022-11-03T03:34:54.514Z,100333.19
2022-11-03T03:37:27.621Z,100333.94
2022-11-03T03:40:01.096Z,100339.91
2022-11-03T03:42:33.102Z,100327.25
2022-11-03T03:45:02.700Z,100333.63
2022-11-03T03:47:34.086Z,100332.50
2022-11-03T03:50:03.068Z,100328.16
2022-11-03T03:52:34.887Z,100325.25
2022-11-03T03:55:03.618Z,100333.84
2022-11-03T03:57:33.589Z,100320.34
2022-11-03T04:00:02.054Z,100299.97
2022-11-03T04:02:40.870Z,100317.44
2022-11-03T04:05:09.905Z,100305.50
2022-11-03T04:07:50.555Z,100279.41
2022-11-03T04:10:20.698Z,100305.53
2022-11-03T04:13:12.191Z,100303.03
2022-11-03T04:15:58.178Z,100308.75
2022-11-03T04:18:44.114Z,100308.19
2022-11-03T04:21:32.023Z,100273.91
2022-11-03T04:24:01.572Z,100313.97
2022-11-03T04:26:30.949Z,100311.22
2022-11-03T04:29:03.377Z,100307.13
2022-11-03T04:31:36.537Z,100312.69
2022-11-03T04:34:12.087Z,100279.06
2022-11-03T04:36:40.990Z,100307.31
2022-11-03T04:39:18.498Z,100315.53
2022-11-03T04:41:47.584Z,100302.22
2022-11-03T04:44:18.174Z,100305.53
2022-11-03T04:46:47.264Z,100322.16
2022-11-03T04:49:23.114Z,100308.53
2022-11-03T04:51:51.834Z,100312.38
2022-11-03T04:54:27.002Z,100306.56
2022-11-03T04:56:55.576Z,100304.31
2022-11-03T04:59:26.406Z,100293.53
2022-11-03T05:05:16.544Z,100291.59
2022-11-03T05:07:45.505Z,100303.03
2022-11-03T05:10:16.555Z,100297.97
2022-11-03T05:12:45.685Z,100215.16
2022-11-03T05:15:30.471Z,100301.66
2022-11-03T05:18:01.078Z,100252.69
2022-11-03T05:20:36.141Z,100308.28
2022-11-03T05:23:07.326Z,100247.13
2022-11-03T05:25:41.190Z,100277.44
2022-11-03T05:28:21.699Z,100247.22
2022-11-03T05:30:51.918Z,100221.13
2022-11-03T05:33:23.799Z,100211.91
2022-11-03T05:35:52.696Z,100290.91
2022-11-03T05:38:24.294Z,100222.63
2022-11-03T05:40:55.121Z,100184.50
2022-11-03T05:43:23.796Z,100249.31
2022-11-03T05:45:57.120Z,100247.09
2022-11-03T05:48:32.528Z,100266.28
2022-11-03T05:51:02.222Z,100230.69
2022-11-03T05:53:32.923Z,100185.28
2022-11-03T05:56:05.413Z,100241.06
2022-11-03T05:58:38.116Z,100273.59
2022-11-03T06:01:20.814Z,100260.00
2022-11-03T06:03:49.721Z,100253.84
2022-11-03T06:06:22.432Z,100160.50
2022-11-03T06:08:52.028Z,100180.22
2022-11-03T06:11:29.224Z,100221.09
2022-11-03T06:13:59.449Z,100175.53
2022-11-03T06:16:40.221Z,100163.06
2022-11-03T06:19:22.592Z,100193.91
2022-11-03T06:21:53.585Z,100150.56
2022-11-03T06:24:28.108Z,100138.22
2022-11-03T06:26:59.116Z,100252.22
2022-11-03T06:29:28.116Z,100209.16
2022-11-03T06:31:58.771Z,100232.50
2022-11-03T06:34:38.670Z,100170.59
2022-11-03T06:37:17.271Z,100192.53
2022-11-03T06:39:45.976Z,100191.81
2022-11-03T06:42:15.829Z,100144.91
2022-11-03T06:44:47.075Z,100163.50
2022-11-03T06:47:23.594Z,100152.56
2022-11-03T06:49:54.296Z,100239.31
2022-11-03T06:52:28.749Z,100125.06
2022-11-03T06:55:13.757Z,100147.34
2022-11-03T06:57:48.243Z,100150.59
2022-11-03T07:00:40.271Z,100158.22
2022-11-03T07:03:33.375Z,100132.03
2022-11-03T07:06:21.403Z,100204.47
2022-11-03T07:08:53.136Z,100140.72
2022-11-03T07:11:24.218Z,100260.56
2022-11-03T07:13:54.912Z,100221.00
2022-11-03T07:16:29.778Z,100259.72
2022-11-03T07:19:01.391Z,100191.94
2022-11-03T07:21:36.349Z,100278.59
2022-11-03T07:24:14.076Z,100217.22
2022-11-03T07:26:42.598Z,100255.28
2022-11-03T07:29:19.451Z,100278.47
2022-11-03T07:31:48.598Z,100294.88
2022-11-03T07:34:23.628Z,100223.06
2022-11-03T07:36:56.033Z,100290.44
2022-11-03T07:39:24.807Z,100263.88
2022-11-03T07:41:53.638Z,100247.66
2022-11-03T07:44:22.501Z,100259.16
2022-11-03T07:46:52.107Z,100224.72
2022-11-03T07:49:28.118Z,100247.38
2022-11-03T07:51:58.379Z,100275.66
2022-11-03T07:54:31.552Z,100304.16
2022-11-03T07:57:02.018Z,100246.94
2022-11-03T07:59:34.650Z,100351.13
2022-11-03T08:02:04.540Z,100357.13
2022-11-03T08:04:36.648Z,100363.38
2022-11-03T08:07:05.179Z,100367.28
2022-11-03T08:09:33.604Z,100362.81
2022-11-03T08:12:02.418Z,100372.41
2022-11-03T08:14:31.683Z,100366.44
2022-11-03T08:17:00.175Z,100358.91
2022-11-03T08:19:28.651Z,100356.56
2022-11-03T08:21:58.555Z,100364.75
2022-11-03T08:24:27.046Z,100362.66
2022-11-03T08:26:55.596Z,100375.47
2022-11-03T08:29:27.187Z,100333.22
2022-11-03T08:31:56.593Z,100376.69
2022-11-03T08:34:25.080Z,100359.19
2022-11-03T08:36:53.671Z,100374.75
2022-11-03T08:39:23.510Z,100377.94
2022-11-03T08:41:52.249Z,100370.56
2022-11-03T08:44:20.709Z,100377.06
2022-11-03T08:46:49.141Z,100377.75
2022-11-03T08:49:17.571Z,100373.28
2022-11-03T08:51:46.338Z,100375.75
2022-11-03T08:54:14.792Z,100371.97
2022-11-03T08:56:46.753Z,100349.19
2022-11-03T08:59:15.592Z,100366.16
2022-11-03T09:01:45.029Z,100375.16
2022-11-03T09:04:13.695Z,100364.81
2022-11-03T09:06:42.432Z,100370.34
2022-11-03T09:12:00.841Z,100380.53
2022-11-03T09:14:29.420Z,100366.81
2022-11-03T09:16:57.859Z,100372.78
2022-11-03T09:19:26.339Z,100371.88
2022-11-03T09:21:54.781Z,100381.31
2022-11-03T09:24:23.200Z,100387.47
2022-11-03T09:26:51.909Z,100387.09
2022-11-03T09:29:21.787Z,100389.06
2022-11-03T09:31:50.243Z,100382.63
2022-11-03T09:34:19.154Z,100388.00
2022-11-03T09:36:52.987Z,100380.59
2022-11-03T09:39:21.779Z,100372.88
2022-11-03T09:41:58.686Z,100404.31
2022-11-03T09:44:29.213Z,100404.91
2022-11-03T09:46:58.548Z,100386.31
2022-11-03T09:49:29.214Z,100414.78
2022-11-03T09:52:01.911Z,100407.06
2022-11-03T09:54:31.083Z,100410.91
2022-11-03T09:57:06.796Z,100398.69
2022-11-03T09:59:38.775Z,100383.34
2022-11-03T10:02:21.180Z,100395.84
2022-11-03T10:04:50.402Z,100389.25
2022-11-03T10:07:19.383Z,100384.72
2022-11-03T10:09:51.192Z,100372.47
2022-11-03T10:12:20.345Z,100399.00
2022-11-03T10:14:50.785Z,100379.31
2022-11-03T10:17:22.087Z,100378.06
2022-11-03T10:19:53.519Z,100369.03
2022-11-03T10:22:22.495Z,100376.97
2022-11-03T10:24:53.540Z,100383.53
2022-11-03T10:27:23.504Z,100380.97
2022-11-03T10:30:08.841Z,100374.94
2022-11-03T10:32:38.210Z,100384.44
2022-11-03T10:35:34.772Z,100380.00
2022-11-03T10:38:27.348Z,100382.69
2022-11-03T10:40:56.460Z,100378.75
2022-11-03T10:43:25.073Z,100371.00
2022-11-03T10:46:29.531Z,100371.78
2022-11-03T10:51:41.741Z,100354.22
2022-11-03T10:54:13.223Z,100346.50
2022-11-03T10:56:42.859Z,100346.28
2022-11-03T10:59:18.193Z,100255.13
2022-11-03T11:01:48.471Z,100320.75
2022-11-03T11:04:18.424Z,100358.00
2022-11-03T11:06:47.780Z,100354.94
2022-11-03T11:09:22.400Z,100358.41
2022-11-03T11:12:01.795Z,100365.16
2022-11-03T11:14:39.519Z,100333.72
2022-11-03T11:17:51.738Z,100360.00
2022-11-03T11:20:42.945Z,100347.78
2022-11-03T11:23:44.704Z,100384.34
2022-11-03T11:26:32.363Z,100369.53
2022-11-03T11:29:44.152Z,100374.97
2022-11-03T11:32:52.710Z,100371.34
2022-11-03T11:36:04.312Z,100369.22
2022-11-03T11:39:09.758Z,100385.53
2022-11-03T11:42:06.446Z,100380.53
2022-11-03T11:44:53.603Z,100355.63
2022-11-03T11:47:28.161Z,100362.88
2022-11-03T11:50:18.650Z,100381.16
2022-11-03T11:52:49.852Z,100389.69
2022-11-03T11:55:23.962Z,100395.41
2022-11-03T11:57:53.821Z,100404.00
2022-11-03T12:00:24.868Z,100408.16
2022-11-03T12:02:54.712Z,100418.69
2022-11-03T12:05:26.234Z,100419.63
2022-11-03T12:07:55.471Z,100397.88
2022-11-03T12:10:27.905Z,100385.63
2022-11-03T12:12:57.304Z,100402.50
2022-11-03T12:15:51.134Z,100418.72
2022-11-03T12:18:40.852Z,100412.41
2022-11-03T12:21:14.152Z,100398.50
2022-11-03T12:23:44.171Z,100382.94
2022-11-03T12:26:18.774Z,100363.72
2022-11-03T12:28:47.242Z,100370.56
2022-11-03T12:31:15.716Z,100367.50
2022-11-03T12:33:44.181Z,100347.28
2022-11-03T12:36:13.042Z,100353.25
2022-11-03T12:38:41.534Z,100343.13
2022-11-03T12:41:25.775Z,100330.66
2022-11-03T12:43:56.359Z,100341.34
2022-11-03T12:46:25.215Z,100359.88
2022-11-03T12:48:53.800Z,100353.19
2022-11-03T12:51:24.213Z,100348.41
2022-11-03T12:53:53.263Z,100332.56
2022-11-03T12:56:21.701Z,100343.94
2022-11-03T12:58:50.232Z,100344.28
2022-11-03T13:01:20.269Z,100344.47
2022-11-03T13:03:48.813Z,100344.63
2022-11-03T13:06:17.267Z,100328.31
2022-11-03T13:08:49.071Z,100309.72
2022-11-03T13:11:32.977Z,100314.00
2022-11-03T13:14:01.562Z,100325.16
2022-11-03T13:16:31.544Z,100306.91
2022-11-03T13:19:00.027Z,100307.63
2022-11-03T13:21:28.456Z,100312.72
2022-11-03T13:23:56.971Z,100300.78
2022-11-03T13:26:25.436Z,100312.56
2022-11-03T13:28:53.941Z,100307.41
2022-11-03T13:31:22.368Z,100316.06
2022-11-03T13:33:52.438Z,100315.06
2022-11-03T13:36:21.739Z,100283.47
2022-11-03T13:38:50.477Z,100267.84
2022-11-03T13:41:18.924Z,100297.34
2022-11-03T13:43:49.050Z,100287.34
2022-11-03T13:46:17.722Z,100273.53
2022-11-03T13:51:36.255Z,100184.00
2022-11-03T13:59:43.024Z,100232.16
2022-11-03T14:05:01.434Z,100233.69
2022-11-03T14:07:31.964Z,100192.50
2022-11-03T14:10:03.842Z,100217.75
2022-11-03T14:12:33.018Z,100270.88
2022-11-03T14:15:02.322Z,100232.31
2022-11-03T14:17:31.180Z,100280.47
2022-11-03T14:20:04.308Z,100292.88
2022-11-03T14:22:35.032Z,100203.88
2022-11-03T14:25:03.965Z,100256.81
2022-11-03T14:27:32.475Z,100279.75
2022-11-03T14:30:00.960Z,100256.34
2022-11-03T14:32:29.400Z,100299.44
2022-11-03T14:34:58.078Z,100299.16
2022-11-03T14:37:28.834Z,100282.72
2022-11-03T14:39:58.878Z,100291.66
2022-11-03T14:42:26.295Z,100298.59
2022-11-03T14:44:55.327Z,100297.97
2022-11-03T14:47:23.776Z,100290.06
2022-11-03T14:49:52.471Z,100282.16
2022-11-03T14:52:20.927Z,100276.69
2022-11-03T14:54:49.788Z,100284.13
2022-11-03T14:57:19.665Z,100260.44
2022-11-03T14:59:53.126Z,100209.47
2022-11-03T15:02:22.226Z,100276.38
2022-11-03T15:04:50.800Z,100255.94
2022-11-03T15:07:19.320Z,100270.84
2022-11-03T15:09:47.933Z,100208.38
2022-11-03T15:12:16.446Z,100275.44
2022-11-03T15:14:46.418Z,100235.72
2022-11-03T15:17:14.966Z,100219.69
2022-11-03T15:19:43.532Z,100277.81
2022-11-03T15:22:12.089Z,100260.72
2022-11-03T15:27:29.329Z,100218.78
2022-11-03T15:29:59.262Z,100286.06
2022-11-03T15:32:29.541Z,100284.78
2022-11-03T15:35:01.374Z,100280.78
2022-11-03T15:37:30.052Z,100295.56
2022-11-03T15:39:59.670Z,100309.41
2022-11-03T15:42:28.627Z,100277.84
2022-11-03T15:44:58.505Z,100291.31
2022-11-03T15:47:27.517Z,100298.59
2022-11-03T15:49:56.244Z,100264.59
2022-11-03T15:52:24.730Z,100301.59
2022-11-03T15:54:53.376Z,100315.88
2022-11-03T15:57:22.305Z,100320.69
2022-11-03T15:59:53.804Z,100318.34
2022-11-03T16:02:41.041Z,100315.53
2022-11-03T16:05:11.259Z,100329.00
2022-11-03T16:07:40.135Z,100324.25
2022-11-03T16:10:09.135Z,100310.19
2022-11-03T16:12:37.692Z,100324.13
2022-11-03T16:15:07.216Z,100321.97
2022-11-03T16:17:41.390Z,100308.84
2022-11-03T16:20:13.233Z,100335.53
2022-11-03T16:22:41.785Z,100292.47
2022-11-03T16:25:13.364Z,100326.97
2022-11-03T16:27:44.179Z,100341.38
2022-11-03T16:30:13.770Z,100299.47
2022-11-03T16:32:44.036Z,100330.88
2022-11-03T16:35:12.650Z,100297.13
2022-11-03T16:37:41.416Z,100325.09
2022-11-03T16:40:14.892Z,100261.66
2022-11-03T16:42:47.651Z,100317.41
2022-11-03T16:45:19.551Z,100327.78
2022-11-03T16:47:50.689Z,100341.31
2022-11-03T16:50:19.890Z,100341.84
2022-11-03T16:52:49.940Z,100321.34
2022-11-03T16:55:19.777Z,100361.78
2022-11-03T16:57:48.409Z,100294.50
2022-11-03T17:00:18.859Z,100360.41
2022-11-03T17:02:47.820Z,100360.41
2022-11-03T17:05:19.993Z,100373.91
2022-11-03T17:07:53.555Z,100367.88
2022-11-03T17:10:22.755Z,100367.41
2022-11-03T17:12:51.294Z,100377.22
2022-11-03T17:15:19.954Z,100378.19
2022-11-03T17:17:48.423Z,100381.59
2022-11-03T17:20:19.296Z,100368.44
2022-11-03T17:22:48.736Z,100382.88
2022-11-03T17:25:17.205Z,100376.88
2022-11-03T17:27:48.078Z,100378.00
2022-11-03T17:30:20.472Z,100386.06
2022-11-03T17:32:50.625Z,100391.97
2022-11-03T17:35:22.787Z,100392.78
2022-11-03T17:37:52.024Z,100399.66
2022-11-03T17:40:22.778Z,100401.50
2022-11-03T17:42:51.534Z,100408.47
2022-11-03T17:45:22.598Z,100410.16
2022-11-03T17:47:51.742Z,100415.19
2022-11-03T17:50:23.894Z,100420.22
2022-11-03T17:52:54.006Z,100425.94
2022-11-03T17:55:27.228Z,100425.56
2022-11-03T17:57:57.230Z,100427.81
2022-11-03T18:00:26.313Z,100437.28
2022-11-03T18:02:56.976Z,100450.78
2022-11-03T18:05:30.295Z,100435.06
2022-11-03T18:07:59.757Z,100462.03
2022-11-03T18:10:31.605Z,100467.31
2022-11-03T18:13:18.145Z,100467.34
2022-11-03T18:15:49.437Z,100473.78
2022-11-03T18:18:21.909Z,100514.63
2022-11-03T18:20:54.086Z,100511.44
2022-11-03T18:23:24.277Z,100468.09
2022-11-03T18:25:53.148Z,100424.75
2022-11-03T18:28:21.701Z,100464.69
2022-11-03T18:30:52.563Z,100463.16
2022-11-03T18:33:24.939Z,100465.38
2022-11-03T18:35:55.651Z,100466.44
2022-11-03T18:38:26.860Z,100468.09
2022-11-03T18:40:56.072Z,100456.66
2022-11-03T18:43:26.864Z,100480.59
2022-11-03T18:45:55.380Z,100477.81
2022-11-03T18:48:24.151Z,100476.53
2022-11-03T18:50:55.983Z,100474.72
2022-11-03T18:53:26.722Z,100482.06
2022-11-03T18:56:00.068Z,100485.34
2022-11-03T18:58:29.074Z,100484.31
2022-11-03T19:00:57.826Z,100488.03
2022-11-03T19:03:26.547Z,100496.25
2022-11-03T19:05:56.463Z,100497.88
2022-11-03T19:08:28.298Z,100501.91
2022-11-03T19:10:57.891Z,100507.75
2022-11-03T19:13:30.064Z,100530.16
2022-11-03T19:16:00.720Z,100555.06
2022-11-03T19:18:31.277Z,100554.13
2022-11-03T19:21:01.415Z,100542.19
2022-11-03T19:23:30.077Z,100553.53
2022-11-03T19:26:01.061Z,100561.22
2022-11-03T19:28:32.529Z,100560.50
2022-11-03T19:31:02.283Z,100558.25
2022-11-03T19:33:32.030Z,100547.38
2022-11-03T19:36:02.302Z,100567.81
2022-11-03T19:38:31.379Z,100570.09
2022-11-03T19:41:17.987Z,100577.63
2022-11-03T19:43:46.674Z,100581.59
2022-11-03T19:46:21.096Z,100582.28
2022-11-03T19:48:49.740Z,100584.50
2022-11-03T19:51:20.380Z,100585.66
2022-11-03T19:53:49.975Z,100609.50
2022-11-03T19:56:19.595Z,100614.78
2022-11-03T19:58:48.699Z,100609.63
2022-11-03T20:01:17.307Z,100616.41
2022-11-03T20:03:46.049Z,100615.78
2022-11-03T20:06:19.085Z,100613.78
2022-11-03T20:08:49.763Z,100624.16
2022-11-03T20:11:38.009Z,100633.31
2022-11-03T20:14:06.590Z,100638.41
2022-11-03T20:16:35.485Z,100646.41
2022-11-03T20:19:04.145Z,100641.88
2022-11-03T20:21:34.424Z,100653.16
2022-11-03T20:24:06.232Z,100644.41
2022-11-03T20:26:36.071Z,100642.13
2022-11-03T20:29:04.997Z,100625.28
2022-11-03T20:31:33.658Z,100612.28
2022-11-03T20:34:02.290Z,100656.97
2022-11-03T20:36:33.701Z,100657.38
2022-11-03T20:39:04.591Z,100659.91
2022-11-03T20:41:33.279Z,100661.19
2022-11-03T20:44:01.747Z,100655.53
2022-11-03T20:46:32.295Z,100645.47
2022-11-03T20:49:01.081Z,100660.34
2022-11-03T20:51:33.393Z,100659.28
2022-11-03T20:54:04.769Z,100665.88
2022-11-03T20:56:33.220Z,100674.81
2022-11-03T20:59:01.944Z,100675.66
2022-11-03T21:01:34.608Z,100670.22
2022-11-03T21:04:04.206Z,100681.94
2022-11-03T21:06:34.534Z,100680.91
2022-11-03T21:09:05.695Z,100692.13
2022-11-03T21:11:40.611Z,100688.78
2022-11-03T21:14:15.939Z,100677.75
2022-11-03T21:17:04.504Z,100690.13
2022-11-03T21:19:56.688Z,100704.38
2022-11-03T21:22:50.935Z,100716.66
2022-11-03T21:25:19.492Z,100719.38
2022-11-03T21:27:49.704Z,100724.22
2022-11-03T21:30:19.355Z,100718.59
2022-11-03T21:32:56.136Z,100718.59
2022-11-03T21:35:25.223Z,100686.50
2022-11-03T21:37:53.857Z,100699.44
2022-11-03T21:40:24.807Z,100689.59
2022-11-03T21:43:11.439Z,100699.41
2022-11-03T21:45:43.479Z,100701.88
2022-11-03T21:48:30.101Z,100722.88
2022-11-03T21:51:02.498Z,100721.84
2022-11-03T21:53:31.374Z,100716.47
2022-11-03T21:56:01.498Z,100721.69
2022-11-03T21:58:30.063Z,100729.69
2022-11-03T22:01:05.626Z,100721.72
2022-11-03T22:03:35.537Z,100714.66
2022-11-03T22:06:05.341Z,100718.31
2022-11-03T22:08:34.404Z,100710.78
2022-11-03T22:11:24.243Z,100702.91
2022-11-03T22:13:56.067Z,100720.78
2022-11-03T22:16:44.908Z,100726.00
2022-11-03T22:19:32.304Z,100725.91
2022-11-03T22:22:18.964Z,100730.78
2022-11-03T22:25:07.951Z,100742.81
2022-11-03T22:27:37.943Z,100738.78
2022-11-03T22:30:25.108Z,100734.38
2022-11-03T22:32:55.515Z,100749.44
2022-11-03T22:35:42.932Z,100741.59
2022-11-03T22:38:13.360Z,100724.22
2022-11-03T22:41:01.074Z,100741.00
2022-11-03T22:43:48.323Z,100750.06
2022-11-03T22:46:18.574Z,100746.47
2022-11-03T22:48:47.049Z,100738.94
2022-11-03T22:51:17.918Z,100743.91
2022-11-03T22:54:03.965Z,100750.66
2022-11-03T22:56:32.844Z,100742.34
2022-11-03T22:59:02.689Z,100747.53
2022-11-03T23:01:31.519Z,100751.56
2022-11-03T23:04:01.113Z,100748.47
2022-11-03T23:06:34.914Z,100750.38
2022-11-03T23:09:03.556Z,100754.94
2022-11-03T23:11:33.578Z,100775.09
2022-11-03T23:14:05.292Z,100773.78
2022-11-03T23:16:35.969Z,100750.69
2022-11-03T23:19:22.566Z,100766.00
2022-11-03T23:21:52.814Z,100768.63
2022-11-03T23:24:42.254Z,100763.19
2022-11-03T23:27:14.098Z,100762.34
2022-11-03T23:29:43.968Z,100751.66
2022-11-03T23:32:12.429Z,100766.81
2022-11-03T23:34:41.141Z,100780.31
2022-11-03T23:37:09.929Z,100776.09
2022-11-03T23:39:38.435Z,100777.78
2022-11-03T23:42:07.682Z,100775.59
2022-11-03T23:44:49.933Z,100777.78
2022-11-03T23:47:37.145Z,100762.53
2022-11-03T23:50:06.320Z,100755.91
2022-11-03T23:52:34.767Z,100775.97
2022-11-03T23:55:03.237Z,100772.50
2022-11-03T23:57:49.478Z,100768.03
